Time;durP1;ratioP1;P1;durP2;ratioP2;P2;SDS_P1;SDS_P2;PMS_P1;PMS_P2;Temp;Humidity;BMP_temperature;BMP_pressure;BME280_temperature;BME280_humidity;BME280_pressure;Samples;Min_cycle;Max_cycle;Signal;HPM_P1;HPM_P2
2022/10/10 00:01:14;;;;;;;;;;;17.90;67.10;;;;;;5046126;27;93436;-49
2022/10/10 00:03:39;;;;;;;;;;;17.90;67.20;;;;;;5042997;27;88809;-50
2022/10/10 00:06:05;;;;;;;;;;;17.90;67.40;;;;;;5040337;27;89794;-51
2022/10/10 00:08:31;;;;;;;;;;;17.80;67.50;;;;;;5031407;27;91315;-51
2022/10/10 00:10:56;;;;;;;;;;;17.90;67.40;;;;;;5031255;27;91572;-53
2022/10/10 00:13:22;;;;;;;;;;;17.90;67.30;;;;;;5044795;27;90237;-52
2022/10/10 00:15:47;;;;;;;;;;;17.90;67.50;;;;;;5038574;27;89938;-49
2022/10/10 00:18:13;;;;;;;;;;;17.90;67.30;;;;;;5041774;27;90248;-53
2022/10/10 00:20:38;;;;;;;;;;;17.90;67.30;;;;;;5047871;27;90206;-52
2022/10/10 00:23:04;;;;;;;;;;;17.90;67.40;;;;;;5019424;27;90317;-52
2022/10/10 00:25:29;;;;;;;;;;;17.90;67.20;;;;;;5041119;27;92172;-50
2022/10/10 00:27:55;;;;;;;;;;;17.90;67.30;;;;;;5042324;27;88764;-50
2022/10/10 00:30:20;;;;;;;;;;;17.90;67.10;;;;;;5045532;27;89957;-50
2022/10/10 00:32:46;;;;;;;;;;;17.90;67.10;;;;;;5031076;27;91579;-53
2022/10/10 00:35:12;;;;;;;;;;;17.90;67.20;;;;;;5047610;27;91247;-52
2022/10/10 00:37:37;;;;;;;;;;;17.80;67.10;;;;;;5042148;27;89813;-49
2022/10/10 00:40:04;;;;;;;;;;;17.90;67.10;;;;;;5029583;27;93454;-50
2022/10/10 00:42:30;;;;;;;;;;;17.90;67.10;;;;;;5037493;27;90855;-50
2022/10/10 00:45:14;;;;;;;;;;;17.80;66.90;;;;;;5047623;27;90222;-49
2022/10/10 00:47:40;;;;;;;;;;;17.80;67.20;;;;;;5044765;27;90050;-53
2022/10/10 00:50:06;;;;;;;;;;;17.80;67.20;;;;;;5031647;27;89653;-52
2022/10/10 00:52:31;;;;;;;;;;;17.80;67.10;;;;;;5030872;27;89681;-51
2022/10/10 00:54:57;;;;;;;;;;;17.70;67.30;;;;;;5044783;27;93318;-53
2022/10/10 00:57:22;;;;;;;;;;;17.80;67.20;;;;;;5043224;27;91444;-55
2022/10/10 00:59:48;;;;;;;;;;;17.80;67.00;;;;;;5043097;27;93349;-51
2022/10/10 01:02:14;;;;;;;;;;;17.80;66.80;;;;;;5039033;27;89772;-52
2022/10/10 01:04:42;;;;;;;;;;;17.80;67.10;;;;;;5034861;27;89981;-54
2022/10/10 01:07:13;;;;;;;;;;;17.80;66.90;;;;;;5026821;27;89684;-52
2022/10/10 01:09:39;;;;;;;;;;;17.80;67.10;;;;;;5035141;27;91194;-53
2022/10/10 01:12:13;;;;;;;;;;;17.70;67.00;;;;;;5044711;27;90504;-52
2022/10/10 01:14:51;;;;;;;;;;;17.70;67.10;;;;;;5048985;27;89816;-55
2022/10/10 01:17:25;;;;;;;;;;;17.80;66.90;;;;;;5050034;27;89461;-51
2022/10/10 01:20:02;;;;;;;;;;;17.80;67.00;;;;;;5043379;27;90159;-48
2022/10/10 01:22:30;;;;;;;;;;;17.80;66.90;;;;;;5031544;27;90718;-50
2022/10/10 01:24:56;;;;;;;;;;;17.70;67.00;;;;;;5036562;27;90772;-52
2022/10/10 01:27:21;;;;;;;;;;;17.70;66.90;;;;;;5049256;27;89462;-51
2022/10/10 01:29:51;;;;;;;;;;;17.70;67.00;;;;;;5058856;27;92786;-50
2022/10/10 01:32:23;;;;;;;;;;;17.70;66.90;;;;;;5028404;27;91083;-48
2022/10/10 01:34:59;;;;;;;;;;;17.70;66.90;;;;;;5036023;27;90352;-50
2022/10/10 01:37:33;;;;;;;;;;;17.60;67.00;;;;;;5039474;27;91723;-50
2022/10/10 01:40:01;;;;;;;;;;;17.60;67.10;;;;;;5039839;27;90595;-53
2022/10/10 01:42:37;;;;;;;;;;;17.60;67.20;;;;;;5035789;27;91988;-51
2022/10/10 01:45:03;;;;;;;;;;;17.60;67.20;;;;;;5034073;27;93585;-48
2022/10/10 01:47:28;;;;;;;;;;;17.60;67.10;;;;;;5032289;27;90008;-53
2022/10/10 01:50:01;;;;;;;;;;;17.50;67.30;;;;;;5039605;27;95128;-47
2022/10/10 01:52:27;;;;;;;;;;;17.50;67.30;;;;;;5041457;27;90762;-49
2022/10/10 01:55:04;;;;;;;;;;;17.60;67.20;;;;;;5040750;27;90309;-49
2022/10/10 01:57:36;;;;;;;;;;;17.50;67.10;;;;;;5038383;27;90356;-53
2022/10/10 02:00:07;;;;;;;;;;;17.50;67.20;;;;;;5028687;27;90146;-51
2022/10/10 02:02:53;;;;;;;;;;;17.50;67.20;;;;;;5046555;27;94079;-51
2022/10/10 02:05:23;;;;;;;;;;;17.50;67.20;;;;;;5040997;27;90323;-53
2022/10/10 02:07:52;;;;;;;;;;;17.50;67.40;;;;;;5043136;27;92230;-49
2022/10/10 02:10:21;;;;;;;;;;;17.50;67.20;;;;;;5018153;27;91419;-51
2022/10/10 02:12:47;;;;;;;;;;;17.50;67.20;;;;;;5039658;27;93142;-51
2022/10/10 02:15:15;;;;;;;;;;;17.50;67.20;;;;;;5043021;27;90955;-57
2022/10/10 02:17:42;;;;;;;;;;;17.50;67.20;;;;;;5029620;27;89500;-50
2022/10/10 02:20:09;;;;;;;;;;;17.50;67.10;;;;;;5029561;27;90422;-52
2022/10/10 02:22:35;;;;;;;;;;;17.50;67.20;;;;;;5033769;27;90126;-54
2022/10/10 02:25:01;;;;;;;;;;;17.50;67.00;;;;;;5041219;27;91738;-49
2022/10/10 02:27:38;;;;;;;;;;;17.50;67.10;;;;;;5045211;27;89770;-51
2022/10/10 02:30:05;;;;;;;;;;;17.50;67.20;;;;;;5049748;27;90662;-51
2022/10/10 02:32:33;;;;;;;;;;;17.40;67.30;;;;;;5045562;27;89375;-52
2022/10/10 02:35:07;;;;;;;;;;;17.40;67.30;;;;;;5043483;27;90048;-51
2022/10/10 02:37:33;;;;;;;;;;;17.40;67.50;;;;;;5050320;27;90354;-54
2022/10/10 02:40:00;;;;;;;;;;;17.40;67.50;;;;;;5026140;27;92453;-50
2022/10/10 02:42:26;;;;;;;;;;;17.40;67.20;;;;;;5037085;27;90806;-50
2022/10/10 02:44:52;;;;;;;;;;;17.40;67.10;;;;;;5031054;27;91984;-51
2022/10/10 02:47:18;;;;;;;;;;;17.40;67.30;;;;;;5045545;27;90676;-51
2022/10/10 02:49:43;;;;;;;;;;;17.40;67.00;;;;;;5043791;27;90894;-50
2022/10/10 02:52:12;;;;;;;;;;;17.40;67.20;;;;;;5045545;27;90471;-54
2022/10/10 02:54:37;;;;;;;;;;;17.40;67.10;;;;;;5041395;27;92015;-54
2022/10/10 02:57:03;;;;;;;;;;;17.40;67.10;;;;;;5042469;27;89204;-54
2022/10/10 02:59:28;;;;;;;;;;;17.40;67.20;;;;;;5037147;27;92890;-52
2022/10/10 03:01:54;;;;;;;;;;;17.40;67.10;;;;;;5041110;27;94568;-52
2022/10/10 03:04:19;;;;;;;;;;;17.40;67.20;;;;;;5050674;27;91923;-52
2022/10/10 03:06:45;;;;;;;;;;;17.40;67.20;;;;;;5039288;27;89613;-53
2022/10/10 03:09:10;;;;;;;;;;;17.40;67.20;;;;;;5045896;27;91204;-50
2022/10/10 03:11:36;;;;;;;;;;;17.30;67.10;;;;;;5042950;27;91211;-52
2022/10/10 03:14:01;;;;;;;;;;;17.30;67.10;;;;;;5053674;27;90349;-51
2022/10/10 03:16:27;;;;;;;;;;;17.30;67.20;;;;;;5037404;27;91107;-50
2022/10/10 03:18:52;;;;;;;;;;;17.30;67.30;;;;;;5033371;27;90265;-52
2022/10/10 03:21:18;;;;;;;;;;;17.30;67.20;;;;;;5047916;27;89304;-55
2022/10/10 03:23:44;;;;;;;;;;;17.30;67.10;;;;;;5040015;27;89907;-51
2022/10/10 03:26:09;;;;;;;;;;;17.30;67.30;;;;;;5042529;27;93095;-54
2022/10/10 03:28:37;;;;;;;;;;;17.30;67.30;;;;;;5031061;27;91028;-53
2022/10/10 03:31:03;;;;;;;;;;;17.30;67.30;;;;;;5043876;27;90526;-50
2022/10/10 03:33:29;;;;;;;;;;;17.30;67.30;;;;;;5053608;27;89552;-48
2022/10/10 03:35:54;;;;;;;;;;;17.30;67.40;;;;;;5039091;27;94995;-51
2022/10/10 03:38:20;;;;;;;;;;;17.30;67.30;;;;;;5042315;27;91386;-51
2022/10/10 03:40:45;;;;;;;;;;;17.20;67.30;;;;;;5034859;27;90022;-50
2022/10/10 03:43:12;;;;;;;;;;;17.30;67.20;;;;;;5040722;27;91239;-50
2022/10/10 03:45:38;;;;;;;;;;;17.30;67.00;;;;;;5039824;27;91670;-52
2022/10/10 03:48:03;;;;;;;;;;;17.30;67.10;;;;;;5043746;27;93151;-50
2022/10/10 03:50:29;;;;;;;;;;;17.30;67.20;;;;;;5029935;27;90398;-49
2022/10/10 03:52:55;;;;;;;;;;;17.20;67.10;;;;;;5038184;27;90851;-49
2022/10/10 03:55:20;;;;;;;;;;;17.20;67.30;;;;;;5038845;27;95092;-50
2022/10/10 03:57:46;;;;;;;;;;;17.20;67.90;;;;;;5044993;27;90828;-50
2022/10/10 04:00:12;;;;;;;;;;;17.20;67.20;;;;;;5028646;27;93636;-52
2022/10/10 04:02:37;;;;;;;;;;;17.20;67.40;;;;;;5035670;27;95044;-52
2022/10/10 04:05:03;;;;;;;;;;;17.20;67.10;;;;;;5041603;27;89763;-50
2022/10/10 04:07:29;;;;;;;;;;;17.20;66.90;;;;;;5050867;27;90095;-51
2022/10/10 04:09:55;;;;;;;;;;;17.30;67.00;;;;;;5037574;27;90891;-51
2022/10/10 04:12:20;;;;;;;;;;;17.20;66.90;;;;;;5034089;27;91793;-55
2022/10/10 04:14:46;;;;;;;;;;;17.30;67.00;;;;;;5049832;27;91495;-50
2022/10/10 04:17:11;;;;;;;;;;;17.30;67.00;;;;;;5045357;27;90791;-53
2022/10/10 04:19:37;;;;;;;;;;;17.20;66.90;;;;;;5046156;27;91494;-49
2022/10/10 04:22:03;;;;;;;;;;;17.20;67.10;;;;;;5048508;27;96532;-49
2022/10/10 04:24:28;;;;;;;;;;;17.30;67.00;;;;;;5043528;27;90558;-49
2022/10/10 04:26:54;;;;;;;;;;;17.20;66.90;;;;;;5048973;27;91824;-52
2022/10/10 04:29:20;;;;;;;;;;;17.20;67.00;;;;;;5044369;27;90125;-52
2022/10/10 04:31:45;;;;;;;;;;;17.20;66.90;;;;;;5042824;27;90410;-52
2022/10/10 04:34:11;;;;;;;;;;;17.20;67.00;;;;;;5042345;27;89515;-50
2022/10/10 04:36:36;;;;;;;;;;;17.20;66.90;;;;;;5024008;27;91759;-51
2022/10/10 04:39:02;;;;;;;;;;;17.20;66.80;;;;;;5046222;27;89917;-54
2022/10/10 04:41:28;;;;;;;;;;;17.20;66.80;;;;;;5043386;27;90986;-52
2022/10/10 04:43:53;;;;;;;;;;;17.20;66.90;;;;;;5050561;27;93964;-50
2022/10/10 04:46:19;;;;;;;;;;;17.20;67.00;;;;;;5038056;27;90526;-49
2022/10/10 04:48:44;;;;;;;;;;;17.10;67.00;;;;;;5033207;27;92730;-51
2022/10/10 04:51:10;;;;;;;;;;;17.10;67.10;;;;;;5050396;27;90284;-53
2022/10/10 04:53:35;;;;;;;;;;;17.10;67.20;;;;;;5038689;27;90038;-49
2022/10/10 04:56:01;;;;;;;;;;;17.20;67.00;;;;;;5036529;27;92075;-49
2022/10/10 04:58:26;;;;;;;;;;;17.20;66.90;;;;;;5049582;27;90194;-53
2022/10/10 05:00:52;;;;;;;;;;;17.20;66.80;;;;;;5044209;27;94008;-51
2022/10/10 05:03:18;;;;;;;;;;;17.10;66.90;;;;;;5057407;27;91303;-51
2022/10/10 05:05:44;;;;;;;;;;;17.20;67.00;;;;;;5048669;27;91007;-51
2022/10/10 05:08:09;;;;;;;;;;;17.10;66.80;;;;;;5049384;27;89899;-55
2022/10/10 05:10:37;;;;;;;;;;;17.10;66.90;;;;;;5031444;27;89976;-49
2022/10/10 05:13:03;;;;;;;;;;;17.20;67.10;;;;;;5045836;27;95200;-52
2022/10/10 05:15:29;;;;;;;;;;;17.20;66.80;;;;;;5040171;27;90675;-48
2022/10/10 05:17:54;;;;;;;;;;;17.20;66.90;;;;;;5042169;27;89785;-51
2022/10/10 05:20:20;;;;;;;;;;;17.20;67.10;;;;;;5039783;27;91573;-54
2022/10/10 05:22:46;;;;;;;;;;;17.10;67.00;;;;;;5028308;27;94442;-53
2022/10/10 05:25:11;;;;;;;;;;;17.10;67.50;;;;;;5032903;27;90480;-50
2022/10/10 05:27:37;;;;;;;;;;;17.10;67.40;;;;;;5045112;27;92858;-52
2022/10/10 05:30:03;;;;;;;;;;;17.10;67.70;;;;;;5040668;27;91367;-52
2022/10/10 05:32:28;;;;;;;;;;;17.10;67.90;;;;;;5049541;27;90369;-50
2022/10/10 05:34:54;;;;;;;;;;;17.10;67.90;;;;;;5044227;27;90171;-53
2022/10/10 05:37:19;;;;;;;;;;;17.10;67.80;;;;;;5050544;27;89948;-51
2022/10/10 05:39:45;;;;;;;;;;;17.10;67.90;;;;;;5043560;27;89817;-49
2022/10/10 05:42:12;;;;;;;;;;;17.00;67.90;;;;;;5037918;27;90595;-49
2022/10/10 05:44:38;;;;;;;;;;;17.10;67.90;;;;;;5049206;27;89989;-53
2022/10/10 05:47:03;;;;;;;;;;;17.10;67.70;;;;;;5013488;27;89788;-52
2022/10/10 05:49:29;;;;;;;;;;;17.10;67.80;;;;;;5033528;27;91744;-50
2022/10/10 05:51:54;;;;;;;;;;;17.10;67.80;;;;;;5038861;27;89560;-53
2022/10/10 05:54:21;;;;;;;;;;;17.10;67.90;;;;;;5044655;27;91162;-50
2022/10/10 05:56:46;;;;;;;;;;;17.20;67.60;;;;;;5030114;27;96266;-51
2022/10/10 05:59:12;;;;;;;;;;;17.20;67.20;;;;;;5038115;27;90277;-53
2022/10/10 06:01:37;;;;;;;;;;;17.30;67.30;;;;;;5037812;27;90882;-52
2022/10/10 06:04:03;;;;;;;;;;;17.20;67.70;;;;;;5040205;27;90885;-51
2022/10/10 06:06:29;;;;;;;;;;;17.20;67.70;;;;;;5051143;27;93271;-51
2022/10/10 06:08:54;;;;;;;;;;;17.10;67.90;;;;;;5046650;27;91093;-49
2022/10/10 06:11:22;;;;;;;;;;;17.10;67.80;;;;;;5046097;27;88789;-51
2022/10/10 06:13:51;;;;;;;;;;;17.00;67.80;;;;;;5046612;27;91148;-50
2022/10/10 06:16:17;;;;;;;;;;;17.00;68.40;;;;;;5056715;27;90477;-52
2022/10/10 06:18:42;;;;;;;;;;;17.00;68.10;;;;;;5037548;27;90537;-51
2022/10/10 06:21:09;;;;;;;;;;;17.10;68.20;;;;;;5049778;27;89993;-53
2022/10/10 06:23:35;;;;;;;;;;;17.10;68.10;;;;;;5038154;27;90256;-50
2022/10/10 06:26:00;;;;;;;;;;;17.20;68.00;;;;;;5038713;27;91429;-53
2022/10/10 06:28:26;;;;;;;;;;;17.20;68.30;;;;;;5041631;27;89853;-49
2022/10/10 06:30:52;;;;;;;;;;;17.40;68.30;;;;;;5049190;27;92184;-51
2022/10/10 06:33:18;;;;;;;;;;;17.60;68.00;;;;;;5029158;27;90525;-53
2022/10/10 06:35:44;;;;;;;;;;;17.70;67.50;;;;;;5060047;27;89696;-52
2022/10/10 06:38:11;;;;;;;;;;;17.90;67.40;;;;;;5055886;27;90659;-48
2022/10/10 06:40:36;;;;;;;;;;;18.00;66.90;;;;;;5031783;27;91933;-53
2022/10/10 06:43:03;;;;;;;;;;;18.10;66.80;;;;;;5038773;27;91262;-51
2022/10/10 06:45:29;;;;;;;;;;;18.00;66.40;;;;;;5034639;27;90434;-55
2022/10/10 06:47:54;;;;;;;;;;;17.90;66.40;;;;;;5046077;27;90570;-50
2022/10/10 06:50:20;;;;;;;;;;;17.90;66.70;;;;;;5046512;27;91684;-53
2022/10/10 06:52:45;;;;;;;;;;;18.00;66.10;;;;;;5045736;27;90963;-51
2022/10/10 06:55:11;;;;;;;;;;;18.10;65.80;;;;;;5042319;27;90491;-51
2022/10/10 06:57:36;;;;;;;;;;;18.20;65.30;;;;;;5032704;27;89750;-53
2022/10/10 07:00:03;;;;;;;;;;;18.20;64.90;;;;;;5041021;27;91597;-54
2022/10/10 07:02:28;;;;;;;;;;;18.20;64.60;;;;;;5027204;27;89781;-52
2022/10/10 07:04:54;;;;;;;;;;;18.10;65.00;;;;;;5017987;27;90225;-52
2022/10/10 07:07:20;;;;;;;;;;;18.00;65.70;;;;;;5025864;27;95789;-52
2022/10/10 07:09:45;;;;;;;;;;;18.00;65.30;;;;;;5039736;27;90262;-51
2022/10/10 07:12:11;;;;;;;;;;;17.90;65.80;;;;;;5046524;27;90468;-53
2022/10/10 07:14:36;;;;;;;;;;;17.90;65.80;;;;;;5049043;27;91455;-52
2022/10/10 07:17:02;;;;;;;;;;;18.00;65.70;;;;;;5040554;27;90030;-50
2022/10/10 07:19:27;;;;;;;;;;;18.00;65.80;;;;;;5040264;27;92428;-53
2022/10/10 07:21:53;;;;;;;;;;;18.10;65.50;;;;;;5044153;27;91123;-53
2022/10/10 07:24:18;;;;;;;;;;;18.10;65.20;;;;;;5038177;27;90154;-52
2022/10/10 07:26:44;;;;;;;;;;;18.10;65.00;;;;;;5021116;27;95098;-53
2022/10/10 07:29:09;;;;;;;;;;;18.20;65.00;;;;;;5020659;27;90783;-55
2022/10/10 07:31:35;;;;;;;;;;;18.20;65.00;;;;;;5017310;27;92530;-53
2022/10/10 07:34:01;;;;;;;;;;;18.20;64.90;;;;;;5007687;27;90892;-54
2022/10/10 07:36:26;;;;;;;;;;;18.30;64.80;;;;;;5015393;27;90414;-52
2022/10/10 07:38:53;;;;;;;;;;;18.20;64.80;;;;;;5026384;27;90014;-56
2022/10/10 07:41:19;;;;;;;;;;;18.30;64.80;;;;;;5026565;27;90363;-53
2022/10/10 07:43:45;;;;;;;;;;;18.30;65.10;;;;;;5027518;27;89947;-56
2022/10/10 07:46:14;;;;;;;;;;;18.20;65.00;;;;;;5024241;27;92518;-54
2022/10/10 07:48:40;;;;;;;;;;;18.30;65.10;;;;;;5029468;27;89106;-53
2022/10/10 07:51:06;;;;;;;;;;;18.30;65.10;;;;;;5024329;27;90022;-53
2022/10/10 07:53:31;;;;;;;;;;;18.30;65.00;;;;;;5019960;27;90600;-56
2022/10/10 07:55:57;;;;;;;;;;;18.30;64.90;;;;;;5025580;27;92636;-53
2022/10/10 07:58:23;;;;;;;;;;;18.30;64.70;;;;;;5037378;27;89493;-55
2022/10/10 08:00:48;;;;;;;;;;;18.30;64.70;;;;;;5016551;27;90585;-55
2022/10/10 08:03:14;;;;;;;;;;;18.30;64.60;;;;;;5025898;27;89894;-53
2022/10/10 08:05:40;;;;;;;;;;;18.30;64.80;;;;;;5024945;27;91173;-56
2022/10/10 08:08:06;;;;;;;;;;;18.30;64.60;;;;;;5033115;27;89849;-53
2022/10/10 08:10:31;;;;;;;;;;;18.30;64.60;;;;;;5021233;27;90613;-51
2022/10/10 08:12:57;;;;;;;;;;;18.30;64.60;;;;;;5018968;27;90181;-50
2022/10/10 08:15:22;;;;;;;;;;;18.30;64.50;;;;;;5031083;27;90326;-54
2022/10/10 08:17:48;;;;;;;;;;;18.30;64.80;;;;;;5018661;27;90055;-55
2022/10/10 08:20:13;;;;;;;;;;;18.30;64.70;;;;;;5023403;27;95528;-51
2022/10/10 08:22:39;;;;;;;;;;;18.30;64.50;;;;;;5017488;27;90594;-54
2022/10/10 08:25:05;;;;;;;;;;;18.20;64.40;;;;;;5021955;27;89933;-53
2022/10/10 08:27:30;;;;;;;;;;;18.30;64.60;;;;;;5049314;27;90480;-52
2022/10/10 08:29:56;;;;;;;;;;;18.40;64.30;;;;;;5049695;27;90961;-54
2022/10/10 08:32:21;;;;;;;;;;;18.30;64.40;;;;;;5049581;27;89850;-53
2022/10/10 08:34:47;;;;;;;;;;;18.30;64.60;;;;;;5042816;27;89813;-54
2022/10/10 08:37:12;;;;;;;;;;;18.30;64.70;;;;;;5045034;27;92210;-51
2022/10/10 08:39:38;;;;;;;;;;;18.30;64.70;;;;;;5045622;27;90077;-55
2022/10/10 08:42:04;;;;;;;;;;;18.30;65.30;;;;;;5050362;27;91838;-53
2022/10/10 08:44:32;;;;;;;;;;;18.30;64.50;;;;;;5031426;27;91102;-53
2022/10/10 08:47:00;;;;;;;;;;;18.30;64.70;;;;;;5036810;27;89559;-55
2022/10/10 08:49:31;;;;;;;;;;;18.30;64.50;;;;;;5014472;27;90567;-56
2022/10/10 08:51:59;;;;;;;;;;;18.30;64.60;;;;;;5038195;27;90076;-54
2022/10/10 08:54:25;;;;;;;;;;;18.30;64.80;;;;;;5028976;27;90410;-52
2022/10/10 08:56:53;;;;;;;;;;;18.30;64.70;;;;;;5038252;27;91611;-53
2022/10/10 08:59:25;;;;;;;;;;;18.30;64.60;;;;;;5037914;27;93102;-53
2022/10/10 09:01:54;;;;;;;;;;;18.30;65.00;;;;;;5037529;27;89570;-54
2022/10/10 09:04:19;;;;;;;;;;;18.30;65.00;;;;;;5037333;27;91163;-51
2022/10/10 09:07:00;;;;;;;;;;;18.30;65.30;;;;;;5038865;27;89979;-54
2022/10/10 09:09:40;;;;;;;;;;;18.30;65.50;;;;;;5038775;27;93602;-53
2022/10/10 09:12:20;;;;;;;;;;;18.20;66.00;;;;;;5034644;27;89605;-50
2022/10/10 09:15:01;;;;;;;;;;;18.20;66.50;;;;;;5048928;27;89728;-57
2022/10/10 09:17:29;;;;;;;;;;;18.20;66.90;;;;;;5045561;27;89814;-56
2022/10/10 09:20:01;;;;;;;;;;;18.10;67.40;;;;;;5017909;27;91807;-50
2022/10/10 09:22:29;;;;;;;;;;;18.10;67.90;;;;;;5048502;27;89978;-49
2022/10/10 09:24:58;;;;;;;;;;;18.30;68.00;;;;;;5045461;27;90170;-56
2022/10/10 09:27:26;;;;;;;;;;;18.30;67.70;;;;;;5040267;27;89545;-56
2022/10/10 09:29:56;;;;;;;;;;;18.40;68.20;;;;;;5039144;27;90080;-58
2022/10/10 09:32:24;;;;;;;;;;;18.40;67.90;;;;;;5023024;27;92760;-58
2022/10/10 09:34:52;;;;;;;;;;;18.50;67.60;;;;;;5025481;27;91218;-58
2022/10/10 09:37:22;;;;;;;;;;;18.50;67.90;;;;;;5029030;27;91163;-57
2022/10/10 09:39:51;;;;;;;;;;;18.50;68.00;;;;;;5034831;27;90384;-49
2022/10/10 09:42:18;;;;;;;;;;;18.50;68.40;;;;;;5027906;27;89776;-52
2022/10/10 09:44:44;;;;;;;;;;;18.60;68.50;;;;;;5017159;27;96555;-48
2022/10/10 09:47:13;;;;;;;;;;;18.70;68.50;;;;;;5034656;27;90038;-52
2022/10/10 09:49:39;;;;;;;;;;;18.60;68.30;;;;;;5035238;27;94466;-50
2022/10/10 09:52:21;;;;;;;;;;;18.60;68.30;;;;;;5030962;27;90577;-50
2022/10/10 09:54:48;;;;;;;;;;;18.60;68.40;;;;;;5045096;27;90502;-49
2022/10/10 09:57:14;;;;;;;;;;;18.60;68.60;;;;;;5043004;27;92562;-46
2022/10/10 09:59:44;;;;;;;;;;;18.60;68.70;;;;;;5051689;27;91606;-47
2022/10/10 10:02:26;;;;;;;;;;;18.70;68.80;;;;;;5053398;27;91201;-50
2022/10/10 10:04:52;;;;;;;;;;;18.70;68.90;;;;;;5046333;27;92766;-50
2022/10/10 10:07:31;;;;;;;;;;;18.70;69.00;;;;;;5042198;27;89931;-52
2022/10/10 10:09:58;;;;;;;;;;;18.70;68.80;;;;;;5041137;27;91893;-49
2022/10/10 10:12:37;;;;;;;;;;;18.70;68.70;;;;;;5043551;27;91770;-53
2022/10/10 10:15:04;;;;;;;;;;;18.70;68.80;;;;;;5051729;27;89920;-48
2022/10/10 10:17:30;;;;;;;;;;;18.70;68.70;;;;;;5039734;27;93941;-50
2022/10/10 10:19:55;;;;;;;;;;;18.80;68.60;;;;;;5043575;27;90228;-49
2022/10/10 10:22:22;;;;;;;;;;;18.80;68.50;;;;;;5057634;27;90029;-48
2022/10/10 10:24:48;;;;;;;;;;;18.80;68.30;;;;;;5051847;27;90862;-50
2022/10/10 10:27:18;;;;;;;;;;;18.80;68.30;;;;;;5043180;27;92630;-47
2022/10/10 10:29:47;;;;;;;;;;;18.80;68.20;;;;;;5038760;27;90115;-53
2022/10/10 10:32:16;;;;;;;;;;;18.80;68.10;;;;;;5049107;27;90237;-51
2022/10/10 10:34:41;;;;;;;;;;;18.80;68.20;;;;;;5050430;27;89885;-50
2022/10/10 10:37:13;;;;;;;;;;;18.80;68.10;;;;;;5048205;27;90111;-50
2022/10/10 10:39:58;;;;;;;;;;;18.80;68.10;;;;;;5042392;27;91866;-48
2022/10/10 10:42:41;;;;;;;;;;;18.80;68.10;;;;;;5043843;27;89319;-50
2022/10/10 10:45:16;;;;;;;;;;;18.80;68.20;;;;;;5046476;27;91339;-52
2022/10/10 10:48:00;;;;;;;;;;;18.80;68.00;;;;;;5034094;27;89767;-49
2022/10/10 10:50:44;;;;;;;;;;;18.80;68.10;;;;;;5050882;27;90790;-52
2022/10/10 10:53:10;;;;;;;;;;;18.80;68.00;;;;;;5037752;27;89909;-50
2022/10/10 10:55:41;;;;;;;;;;;18.90;68.10;;;;;;5037412;27;90516;-47
2022/10/10 10:58:23;;;;;;;;;;;18.90;67.90;;;;;;5042915;27;92909;-51
2022/10/10 11:01:00;;;;;;;;;;;18.90;68.10;;;;;;5041052;27;90208;-51
2022/10/10 11:03:26;;;;;;;;;;;18.90;68.00;;;;;;5044386;27;91055;-49
2022/10/10 11:06:00;;;;;;;;;;;18.90;67.90;;;;;;5052486;27;90184;-52
2022/10/10 11:08:35;;;;;;;;;;;18.90;68.00;;;;;;5034119;27;92377;-50
2022/10/10 11:11:00;;;;;;;;;;;19.00;68.00;;;;;;5031982;27;94977;-51
2022/10/10 11:13:41;;;;;;;;;;;19.00;68.20;;;;;;5042241;27;91032;-50
2022/10/10 11:16:13;;;;;;;;;;;19.00;68.20;;;;;;5056650;27;90848;-52
2022/10/10 11:18:50;;;;;;;;;;;19.00;68.20;;;;;;5042886;27;89743;-52
2022/10/10 11:21:17;;;;;;;;;;;19.00;68.20;;;;;;5037737;27;90017;-53
2022/10/10 11:23:46;;;;;;;;;;;19.00;67.90;;;;;;5046214;27;89579;-51
2022/10/10 11:26:50;;;;;;;;;;;19.00;67.80;;;;;;5017463;27;90335;-53
2022/10/10 11:29:15;;;;;;;;;;;19.00;67.80;;;;;;4942319;28;89649;-55
2022/10/10 11:31:44;;;;;;;;;;;19.10;68.40;;;;;;4931577;28;92804;-50
2022/10/10 11:34:20;;;;;;;;;;;19.10;68.50;;;;;;4976979;27;89317;-54
2022/10/10 11:36:46;;;;;;;;;;;19.10;68.60;;;;;;5023195;27;90037;-51
2022/10/10 11:39:12;;;;;;;;;;;19.10;69.00;;;;;;5026200;27;89444;-51
2022/10/10 11:41:43;;;;;;;;;;;19.10;69.10;;;;;;5011877;27;91946;-51
2022/10/10 11:44:11;;;;;;;;;;;19.10;68.80;;;;;;5016641;27;89629;-53
2022/10/10 11:46:37;;;;;;;;;;;19.10;68.40;;;;;;5019764;27;90080;-52
2022/10/10 11:49:12;;;;;;;;;;;19.20;68.60;;;;;;5016184;27;89589;-55
2022/10/10 11:51:43;;;;;;;;;;;19.10;68.80;;;;;;5024762;27;89806;-50
2022/10/10 11:54:17;;;;;;;;;;;19.20;69.00;;;;;;5022427;27;90085;-52
2022/10/10 11:56:43;;;;;;;;;;;19.20;68.80;;;;;;5026861;27;90004;-47
2022/10/10 11:59:35;;;;;;;;;;;19.20;69.00;;;;;;5014508;27;89956;-50
2022/10/10 12:02:04;;;;;;;;;;;19.30;69.30;;;;;;4978792;27;94506;-49
2022/10/10 12:04:34;;;;;;;;;;;19.30;69.50;;;;;;5016774;27;92906;-52
2022/10/10 12:07:05;;;;;;;;;;;19.30;69.50;;;;;;5014514;27;90699;-49
2022/10/10 12:09:33;;;;;;;;;;;19.20;69.50;;;;;;5021811;27;90240;-50
2022/10/10 12:12:01;;;;;;;;;;;19.30;69.60;;;;;;5023206;27;89889;-50
2022/10/10 12:14:29;;;;;;;;;;;19.30;69.60;;;;;;5031014;27;89709;-48
2022/10/10 12:16:55;;;;;;;;;;;19.30;69.70;;;;;;5017611;27;94095;-49
2022/10/10 12:19:21;;;;;;;;;;;19.30;69.60;;;;;;5016848;27;90154;-49
2022/10/10 12:21:55;;;;;;;;;;;19.30;69.60;;;;;;5024982;27;90072;-51
2022/10/10 12:24:21;;;;;;;;;;;19.30;69.60;;;;;;5028267;27;93556;-48
2022/10/10 12:26:55;;;;;;;;;;;19.30;69.60;;;;;;5031573;27;90161;-49
2022/10/10 12:29:40;;;;;;;;;;;19.30;69.60;;;;;;5046057;27;90688;-50
2022/10/10 12:32:22;;;;;;;;;;;19.40;69.60;;;;;;5046488;27;91974;-49
2022/10/10 12:34:47;;;;;;;;;;;19.40;69.50;;;;;;5043544;27;90046;-51
2022/10/10 12:37:27;;;;;;;;;;;19.40;69.50;;;;;;5050704;27;90246;-49
2022/10/10 12:40:04;;;;;;;;;;;19.40;69.30;;;;;;5034997;27;90631;-53
2022/10/10 12:42:31;;;;;;;;;;;19.40;69.30;;;;;;5034825;27;91343;-50
2022/10/10 12:44:57;;;;;;;;;;;19.50;69.30;;;;;;5031073;27;89971;-53
2022/10/10 12:47:29;;;;;;;;;;;19.50;69.30;;;;;;5044655;27;90337;-48
2022/10/10 12:49:58;;;;;;;;;;;19.40;69.10;;;;;;5048611;27;94007;-51
2022/10/10 12:52:42;;;;;;;;;;;19.50;69.20;;;;;;5031624;27;91654;-50
2022/10/10 12:55:16;;;;;;;;;;;19.50;69.00;;;;;;5047546;27;89971;-50
2022/10/10 12:57:43;;;;;;;;;;;19.50;69.00;;;;;;5041101;27;90652;-53
2022/10/10 13:00:23;;;;;;;;;;;19.50;69.00;;;;;;5039625;27;91068;-50
2022/10/10 13:02:59;;;;;;;;;;;19.50;68.90;;;;;;5038535;27;92016;-52
2022/10/10 13:05:26;;;;;;;;;;;19.50;69.00;;;;;;5055958;27;89915;-52
2022/10/10 13:07:52;;;;;;;;;;;19.50;68.90;;;;;;5039682;27;95189;-53
2022/10/10 13:10:20;;;;;;;;;;;19.50;68.80;;;;;;5047771;27;90070;-47
2022/10/10 13:12:56;;;;;;;;;;;19.50;68.80;;;;;;5030809;27;91049;-52
2022/10/10 13:15:22;;;;;;;;;;;19.60;68.80;;;;;;5045099;27;89090;-53
2022/10/10 13:17:47;;;;;;;;;;;19.60;68.80;;;;;;5042654;27;89598;-53
2022/10/10 13:20:25;;;;;;;;;;;19.60;68.70;;;;;;5042465;27;90301;-53
2022/10/10 13:22:51;;;;;;;;;;;19.60;68.70;;;;;;5040322;27;95597;-49
2022/10/10 13:25:17;;;;;;;;;;;19.60;68.50;;;;;;5041621;27;89929;-48
2022/10/10 13:27:42;;;;;;;;;;;19.60;68.50;;;;;;5030317;27;89871;-50
2022/10/10 13:30:17;;;;;;;;;;;19.60;68.40;;;;;;5049099;27;89661;-51
2022/10/10 13:32:42;;;;;;;;;;;19.60;68.40;;;;;;5032773;27;92562;-52
2022/10/10 13:35:16;;;;;;;;;;;19.60;68.40;;;;;;5036763;27;91746;-50
2022/10/10 13:37:42;;;;;;;;;;;19.60;68.30;;;;;;5041613;27;93097;-52
2022/10/10 13:40:14;;;;;;;;;;;19.60;68.30;;;;;;5038251;27;90505;-52
2022/10/10 13:42:40;;;;;;;;;;;19.60;68.30;;;;;;5028764;27;90461;-51
2022/10/10 13:45:24;;;;;;;;;;;19.70;68.10;;;;;;5048570;27;90177;-52
2022/10/10 13:47:50;;;;;;;;;;;19.70;68.10;;;;;;5033409;27;90948;-54
2022/10/10 13:50:18;;;;;;;;;;;19.70;68.10;;;;;;5033618;27;91538;-51
2022/10/10 13:52:43;;;;;;;;;;;19.70;68.00;;;;;;5042093;27;91075;-48
2022/10/10 13:55:13;;;;;;;;;;;19.70;67.90;;;;;;5048401;27;93168;-51
2022/10/10 13:57:39;;;;;;;;;;;19.70;67.90;;;;;;5042399;27;90591;-50
2022/10/10 14:00:06;;;;;;;;;;;19.70;67.80;;;;;;5034225;27;89973;-51
2022/10/10 14:02:33;;;;;;;;;;;19.70;67.80;;;;;;5037036;27;91972;-53
2022/10/10 14:05:04;;;;;;;;;;;19.70;67.70;;;;;;5044049;27;89655;-49
2022/10/10 14:07:29;;;;;;;;;;;19.70;67.60;;;;;;5033746;27;90024;-53
2022/10/10 14:09:59;;;;;;;;;;;19.80;67.60;;;;;;5036686;27;89833;-56
2022/10/10 14:12:32;;;;;;;;;;;19.80;67.50;;;;;;5032648;27;91304;-52
2022/10/10 14:14:59;;;;;;;;;;;19.80;67.40;;;;;;5050967;27;89947;-53
2022/10/10 14:17:25;;;;;;;;;;;19.80;67.30;;;;;;5046457;27;93007;-55
2022/10/10 14:19:51;;;;;;;;;;;19.80;67.30;;;;;;5034661;27;91725;-53
2022/10/10 14:22:17;;;;;;;;;;;19.80;67.30;;;;;;5036616;27;91035;-51